sensor_id;sensor_type;location;lat;lon;timestamp;temperature;humidity
26537;DHT22;14204;51.262;5.488;2023-04-29T00:01:06;13.40;99.90
26537;DHT22;14204;51.262;5.488;2023-04-29T00:03:32;13.40;99.90
26537;DHT22;14204;51.262;5.488;2023-04-29T00:05:58;13.50;99.90
26537;DHT22;14204;51.262;5.488;2023-04-29T00:08:24;13.40;99.90
26537;DHT22;14204;51.262;5.488;2023-04-29T00:10:50;13.40;99.90
26537;DHT22;14204;51.262;5.488;2023-04-29T00:13:16;13.40;99.90
26537;DHT22;14204;51.262;5.488;2023-04-29T00:15:42;13.40;99.90
26537;DHT22;14204;51.262;5.488;2023-04-29T00:18:08;13.40;99.90
26537;DHT22;14204;51.262;5.488;2023-04-29T00:20:35;13.40;99.90
26537;DHT22;14204;51.262;5.488;2023-04-29T00:23:02;13.40;99.90
26537;DHT22;14204;51.262;5.488;2023-04-29T00:25:29;13.40;99.90
26537;DHT22;14204;51.262;5.488;2023-04-29T00:27:55;13.30;99.90
26537;DHT22;14204;51.262;5.488;2023-04-29T00:30:24;13.20;99.90
26537;DHT22;14204;51.262;5.488;2023-04-29T00:32:50;13.30;99.90
26537;DHT22;14204;51.262;5.488;2023-04-29T00:35:15;13.30;99.90
26537;DHT22;14204;51.262;5.488;2023-04-29T00:37:41;13.30;99.90
26537;DHT22;14204;51.262;5.488;2023-04-29T00:40:08;13.20;99.90
26537;DHT22;14204;51.262;5.488;2023-04-29T00:42:34;13.00;99.90
26537;DHT22;14204;51.262;5.488;2023-04-29T00:45:00;13.10;99.90
26537;DHT22;14204;51.262;5.488;2023-04-29T00:47:26;13.10;99.90
26537;DHT22;14204;51.262;5.488;2023-04-29T00:49:52;13.10;99.90
26537;DHT22;14204;51.262;5.488;2023-04-29T00:52:18;13.10;99.90
26537;DHT22;14204;51.262;5.488;2023-04-29T00:54:44;13.00;99.90
26537;DHT22;14204;51.262;5.488;2023-04-29T00:57:10;13.00;99.90
26537;DHT22;14204;51.262;5.488;2023-04-29T00:59:36;13.10;99.90
26537;DHT22;14204;51.262;5.488;2023-04-29T01:02:03;13.20;99.90
26537;DHT22;14204;51.262;5.488;2023-04-29T01:04:30;13.10;99.90
26537;DHT22;14204;51.262;5.488;2023-04-29T01:07:14;13.10;99.90
26537;DHT22;14204;51.262;5.488;2023-04-29T01:10:09;13.10;99.90
26537;DHT22;14204;51.262;5.488;2023-04-29T01:15:11;13.10;99.90
26537;DHT22;14204;51.262;5.488;2023-04-29T01:17:50;13.10;99.90
26537;DHT22;14204;51.262;5.488;2023-04-29T01:20:21;13.10;99.90
26537;DHT22;14204;51.262;5.488;2023-04-29T01:22:47;13.10;99.90
26537;DHT22;14204;51.262;5.488;2023-04-29T01:25:13;13.10;99.90
26537;DHT22;14204;51.262;5.488;2023-04-29T01:30:44;13.10;99.90
26537;DHT22;14204;51.262;5.488;2023-04-29T01:36:12;13.10;99.90
26537;DHT22;14204;51.262;5.488;2023-04-29T01:41:43;13.20;99.90
26537;DHT22;14204;51.262;5.488;2023-04-29T01:44:14;13.20;99.90
26537;DHT22;14204;51.262;5.488;2023-04-29T01:46:49;13.10;99.90
26537;DHT22;14204;51.262;5.488;2023-04-29T01:49:15;13.10;99.90
26537;DHT22;14204;51.262;5.488;2023-04-29T01:51:44;13.00;99.90
26537;DHT22;14204;51.262;5.488;2023-04-29T01:54:09;13.10;99.90
26537;DHT22;14204;51.262;5.488;2023-04-29T01:56:35;13.20;99.90
26537;DHT22;14204;51.262;5.488;2023-04-29T01:59:01;12.90;99.90
26537;DHT22;14204;51.262;5.488;2023-04-29T02:01:27;12.90;99.90
26537;DHT22;14204;51.262;5.488;2023-04-29T02:03:52;12.90;99.90
26537;DHT22;14204;51.262;5.488;2023-04-29T02:06:18;12.90;99.90
26537;DHT22;14204;51.262;5.488;2023-04-29T02:08:44;12.90;99.90
26537;DHT22;14204;51.262;5.488;2023-04-29T02:11:09;13.00;99.90
26537;DHT22;14204;51.262;5.488;2023-04-29T02:13:35;13.10;99.90
26537;DHT22;14204;51.262;5.488;2023-04-29T02:16:09;13.00;99.90
26537;DHT22;14204;51.262;5.488;2023-04-29T02:18:35;13.00;99.90
26537;DHT22;14204;51.262;5.488;2023-04-29T02:21:00;12.90;99.90
26537;DHT22;14204;51.262;5.488;2023-04-29T02:23:27;12.90;99.90
26537;DHT22;14204;51.262;5.488;2023-04-29T02:25:52;12.90;99.90
26537;DHT22;14204;51.262;5.488;2023-04-29T02:28:18;12.90;99.90
26537;DHT22;14204;51.262;5.488;2023-04-29T02:30:44;12.90;99.90
26537;DHT22;14204;51.262;5.488;2023-04-29T02:33:10;12.90;99.90
26537;DHT22;14204;51.262;5.488;2023-04-29T02:35:36;12.90;99.90
26537;DHT22;14204;51.262;5.488;2023-04-29T02:38:01;12.90;99.90
26537;DHT22;14204;51.262;5.488;2023-04-29T02:40:27;12.90;99.90
26537;DHT22;14204;51.262;5.488;2023-04-29T02:42:53;12.80;99.90
26537;DHT22;14204;51.262;5.488;2023-04-29T02:45:19;12.80;99.90
26537;DHT22;14204;51.262;5.488;2023-04-29T02:47:44;12.90;99.90
26537;DHT22;14204;51.262;5.488;2023-04-29T02:50:10;12.90;99.90
26537;DHT22;14204;51.262;5.488;2023-04-29T02:52:36;13.00;99.90
26537;DHT22;14204;51.262;5.488;2023-04-29T02:55:01;12.90;99.90
26537;DHT22;14204;51.262;5.488;2023-04-29T02:57:27;12.90;99.90
26537;DHT22;14204;51.262;5.488;2023-04-29T02:59:54;12.80;99.90
26537;DHT22;14204;51.262;5.488;2023-04-29T03:02:20;12.80;99.90
26537;DHT22;14204;51.262;5.488;2023-04-29T03:04:45;12.90;99.90
26537;DHT22;14204;51.262;5.488;2023-04-29T03:07:11;12.90;99.90
26537;DHT22;14204;51.262;5.488;2023-04-29T03:09:37;12.80;99.90
26537;DHT22;14204;51.262;5.488;2023-04-29T03:12:03;12.70;99.90
26537;DHT22;14204;51.262;5.488;2023-04-29T03:14:28;12.70;99.90
26537;DHT22;14204;51.262;5.488;2023-04-29T03:16:54;12.80;99.90
26537;DHT22;14204;51.262;5.488;2023-04-29T03:19:21;12.70;99.90
26537;DHT22;14204;51.262;5.488;2023-04-29T03:21:46;12.80;99.90
26537;DHT22;14204;51.262;5.488;2023-04-29T03:24:12;12.70;99.90
26537;DHT22;14204;51.262;5.488;2023-04-29T03:26:38;12.80;99.90
26537;DHT22;14204;51.262;5.488;2023-04-29T03:29:04;12.80;99.90
26537;DHT22;14204;51.262;5.488;2023-04-29T03:31:30;12.80;99.90
26537;DHT22;14204;51.262;5.488;2023-04-29T03:33:56;12.80;99.90
26537;DHT22;14204;51.262;5.488;2023-04-29T03:36:22;12.90;99.90
26537;DHT22;14204;51.262;5.488;2023-04-29T03:38:47;12.90;99.90
26537;DHT22;14204;51.262;5.488;2023-04-29T03:41:13;12.80;99.90
26537;DHT22;14204;51.262;5.488;2023-04-29T03:43:39;12.90;99.90
26537;DHT22;14204;51.262;5.488;2023-04-29T03:46:05;12.80;99.90
26537;DHT22;14204;51.262;5.488;2023-04-29T03:48:31;12.90;99.90
26537;DHT22;14204;51.262;5.488;2023-04-29T03:50:57;12.90;99.90
26537;DHT22;14204;51.262;5.488;2023-04-29T03:53:23;12.90;99.90
26537;DHT22;14204;51.262;5.488;2023-04-29T03:55:50;12.90;99.90
26537;DHT22;14204;51.262;5.488;2023-04-29T03:58:16;12.90;99.90
26537;DHT22;14204;51.262;5.488;2023-04-29T04:00:41;12.90;99.90
26537;DHT22;14204;51.262;5.488;2023-04-29T04:03:07;12.90;99.90
26537;DHT22;14204;51.262;5.488;2023-04-29T04:05:33;12.90;99.90
26537;DHT22;14204;51.262;5.488;2023-04-29T04:07:59;12.80;99.90
26537;DHT22;14204;51.262;5.488;2023-04-29T04:10:25;12.70;99.90
26537;DHT22;14204;51.262;5.488;2023-04-29T04:12:51;12.70;99.90
26537;DHT22;14204;51.262;5.488;2023-04-29T04:15:16;12.70;99.90
26537;DHT22;14204;51.262;5.488;2023-04-29T04:17:42;12.70;99.90
26537;DHT22;14204;51.262;5.488;2023-04-29T04:20:08;12.70;99.90
26537;DHT22;14204;51.262;5.488;2023-04-29T04:22:34;12.70;99.90
26537;DHT22;14204;51.262;5.488;2023-04-29T04:25:00;12.70;99.90
26537;DHT22;14204;51.262;5.488;2023-04-29T04:27:25;12.70;99.90
26537;DHT22;14204;51.262;5.488;2023-04-29T04:29:54;12.70;99.90
26537;DHT22;14204;51.262;5.488;2023-04-29T04:32:21;12.70;99.90
26537;DHT22;14204;51.262;5.488;2023-04-29T04:34:48;12.70;99.90
26537;DHT22;14204;51.262;5.488;2023-04-29T04:37:14;12.60;99.90
26537;DHT22;14204;51.262;5.488;2023-04-29T04:39:40;12.60;99.90
26537;DHT22;14204;51.262;5.488;2023-04-29T04:42:06;12.60;99.90
26537;DHT22;14204;51.262;5.488;2023-04-29T04:44:32;12.70;99.90
26537;DHT22;14204;51.262;5.488;2023-04-29T04:46:58;12.60;99.90
26537;DHT22;14204;51.262;5.488;2023-04-29T04:49:26;12.60;99.90
26537;DHT22;14204;51.262;5.488;2023-04-29T04:51:52;12.60;99.90
26537;DHT22;14204;51.262;5.488;2023-04-29T04:54:18;12.70;99.90
26537;DHT22;14204;51.262;5.488;2023-04-29T04:56:43;12.70;99.90
26537;DHT22;14204;51.262;5.488;2023-04-29T04:59:09;12.70;99.90
26537;DHT22;14204;51.262;5.488;2023-04-29T05:01:35;12.70;99.90
26537;DHT22;14204;51.262;5.488;2023-04-29T05:04:00;12.70;99.90
26537;DHT22;14204;51.262;5.488;2023-04-29T05:06:27;12.70;99.90
26537;DHT22;14204;51.262;5.488;2023-04-29T05:08:53;12.80;99.90
26537;DHT22;14204;51.262;5.488;2023-04-29T05:11:22;12.80;99.90
26537;DHT22;14204;51.262;5.488;2023-04-29T05:13:48;12.70;99.90
26537;DHT22;14204;51.262;5.488;2023-04-29T05:16:14;12.70;99.90
26537;DHT22;14204;51.262;5.488;2023-04-29T05:18:41;12.70;99.90
26537;DHT22;14204;51.262;5.488;2023-04-29T05:21:09;12.70;99.90
26537;DHT22;14204;51.262;5.488;2023-04-29T05:23:35;12.70;99.90
26537;DHT22;14204;51.262;5.488;2023-04-29T05:26:01;12.70;99.90
26537;DHT22;14204;51.262;5.488;2023-04-29T05:28:26;12.70;99.90
26537;DHT22;14204;51.262;5.488;2023-04-29T05:30:52;12.70;99.90
26537;DHT22;14204;51.262;5.488;2023-04-29T05:33:18;12.80;99.90
26537;DHT22;14204;51.262;5.488;2023-04-29T05:35:45;12.80;99.90
26537;DHT22;14204;51.262;5.488;2023-04-29T05:38:11;12.70;99.90
26537;DHT22;14204;51.262;5.488;2023-04-29T05:40:36;12.80;99.90
26537;DHT22;14204;51.262;5.488;2023-04-29T05:43:02;12.70;99.90
26537;DHT22;14204;51.262;5.488;2023-04-29T05:45:28;12.70;99.90
26537;DHT22;14204;51.262;5.488;2023-04-29T05:47:54;12.80;99.90
26537;DHT22;14204;51.262;5.488;2023-04-29T05:50:20;12.80;99.90
26537;DHT22;14204;51.262;5.488;2023-04-29T05:52:45;12.70;99.90
26537;DHT22;14204;51.262;5.488;2023-04-29T05:55:11;12.70;99.90
26537;DHT22;14204;51.262;5.488;2023-04-29T05:57:37;12.70;99.90
26537;DHT22;14204;51.262;5.488;2023-04-29T06:00:03;12.70;99.90
26537;DHT22;14204;51.262;5.488;2023-04-29T06:02:28;12.70;99.90
26537;DHT22;14204;51.262;5.488;2023-04-29T06:04:55;12.70;99.90
26537;DHT22;14204;51.262;5.488;2023-04-29T06:07:21;12.60;99.90
26537;DHT22;14204;51.262;5.488;2023-04-29T06:09:47;12.60;99.90
26537;DHT22;14204;51.262;5.488;2023-04-29T06:12:13;12.60;99.90
26537;DHT22;14204;51.262;5.488;2023-04-29T06:14:38;12.60;99.90
26537;DHT22;14204;51.262;5.488;2023-04-29T06:17:04;12.60;99.90
26537;DHT22;14204;51.262;5.488;2023-04-29T06:19:30;12.60;99.90
26537;DHT22;14204;51.262;5.488;2023-04-29T06:21:57;12.70;99.90
26537;DHT22;14204;51.262;5.488;2023-04-29T06:24:23;12.70;99.90
26537;DHT22;14204;51.262;5.488;2023-04-29T06:26:49;12.70;99.90
26537;DHT22;14204;51.262;5.488;2023-04-29T06:29:15;12.80;99.90
26537;DHT22;14204;51.262;5.488;2023-04-29T06:31:41;12.80;99.90
26537;DHT22;14204;51.262;5.488;2023-04-29T06:34:07;12.80;99.90
26537;DHT22;14204;51.262;5.488;2023-04-29T06:36:32;12.70;99.90
26537;DHT22;14204;51.262;5.488;2023-04-29T06:38:58;12.70;99.90
26537;DHT22;14204;51.262;5.488;2023-04-29T06:41:24;12.80;99.90
26537;DHT22;14204;51.262;5.488;2023-04-29T06:43:50;12.80;99.90
26537;DHT22;14204;51.262;5.488;2023-04-29T06:46:15;12.80;99.90
26537;DHT22;14204;51.262;5.488;2023-04-29T06:48:41;12.70;99.90
26537;DHT22;14204;51.262;5.488;2023-04-29T06:51:07;12.80;99.90
26537;DHT22;14204;51.262;5.488;2023-04-29T06:53:33;12.70;99.90
26537;DHT22;14204;51.262;5.488;2023-04-29T06:55:58;12.70;99.90
26537;DHT22;14204;51.262;5.488;2023-04-29T06:58:24;12.70;99.90
26537;DHT22;14204;51.262;5.488;2023-04-29T07:00:50;12.70;99.90
26537;DHT22;14204;51.262;5.488;2023-04-29T07:03:17;12.70;99.90
26537;DHT22;14204;51.262;5.488;2023-04-29T07:05:43;12.70;99.90
26537;DHT22;14204;51.262;5.488;2023-04-29T07:08:13;12.80;99.90
26537;DHT22;14204;51.262;5.488;2023-04-29T07:10:39;12.70;99.90
26537;DHT22;14204;51.262;5.488;2023-04-29T07:13:06;12.70;99.90
26537;DHT22;14204;51.262;5.488;2023-04-29T07:15:35;12.70;99.90
26537;DHT22;14204;51.262;5.488;2023-04-29T07:18:04;12.70;99.90
26537;DHT22;14204;51.262;5.488;2023-04-29T07:20:31;12.70;99.90
26537;DHT22;14204;51.262;5.488;2023-04-29T07:22:59;12.70;99.90
26537;DHT22;14204;51.262;5.488;2023-04-29T07:25:26;12.80;99.90
26537;DHT22;14204;51.262;5.488;2023-04-29T07:27:55;12.80;99.90
26537;DHT22;14204;51.262;5.488;2023-04-29T07:30:21;12.80;99.90
26537;DHT22;14204;51.262;5.488;2023-04-29T07:32:48;12.80;99.90
26537;DHT22;14204;51.262;5.488;2023-04-29T07:35:13;12.80;99.90
26537;DHT22;14204;51.262;5.488;2023-04-29T07:37:39;12.80;99.90
26537;DHT22;14204;51.262;5.488;2023-04-29T07:40:06;12.80;99.90
26537;DHT22;14204;51.262;5.488;2023-04-29T07:42:32;12.80;99.90
26537;DHT22;14204;51.262;5.488;2023-04-29T07:44:58;12.70;99.90
26537;DHT22;14204;51.262;5.488;2023-04-29T07:47:23;12.70;99.90
26537;DHT22;14204;51.262;5.488;2023-04-29T07:49:49;12.70;99.90
26537;DHT22;14204;51.262;5.488;2023-04-29T07:52:15;12.80;99.90
26537;DHT22;14204;51.262;5.488;2023-04-29T07:54:41;12.80;99.90
26537;DHT22;14204;51.262;5.488;2023-04-29T07:57:07;12.80;99.90
26537;DHT22;14204;51.262;5.488;2023-04-29T07:59:33;12.80;99.90
26537;DHT22;14204;51.262;5.488;2023-04-29T08:02:03;12.90;99.90
26537;DHT22;14204;51.262;5.488;2023-04-29T08:04:32;12.90;99.90
26537;DHT22;14204;51.262;5.488;2023-04-29T08:06:58;13.00;99.90
26537;DHT22;14204;51.262;5.488;2023-04-29T08:09:23;12.90;99.90
26537;DHT22;14204;51.262;5.488;2023-04-29T08:11:49;13.00;99.90
26537;DHT22;14204;51.262;5.488;2023-04-29T08:14:15;13.00;99.90
26537;DHT22;14204;51.262;5.488;2023-04-29T08:16:41;13.10;99.90
26537;DHT22;14204;51.262;5.488;2023-04-29T08:19:06;13.20;99.90
26537;DHT22;14204;51.262;5.488;2023-04-29T08:21:32;13.30;99.90
26537;DHT22;14204;51.262;5.488;2023-04-29T08:23:59;13.30;99.90
26537;DHT22;14204;51.262;5.488;2023-04-29T08:26:25;13.30;99.90
26537;DHT22;14204;51.262;5.488;2023-04-29T08:28:51;13.30;99.90
26537;DHT22;14204;51.262;5.488;2023-04-29T08:31:20;13.40;99.90
26537;DHT22;14204;51.262;5.488;2023-04-29T08:33:46;13.30;99.90
26537;DHT22;14204;51.262;5.488;2023-04-29T08:36:12;13.30;99.90
26537;DHT22;14204;51.262;5.488;2023-04-29T08:38:38;13.20;99.90
26537;DHT22;14204;51.262;5.488;2023-04-29T08:41:06;13.30;99.90
26537;DHT22;14204;51.262;5.488;2023-04-29T08:43:35;13.30;99.90
26537;DHT22;14204;51.262;5.488;2023-04-29T08:46:05;13.40;99.90
26537;DHT22;14204;51.262;5.488;2023-04-29T08:48:31;13.50;99.90
26537;DHT22;14204;51.262;5.488;2023-04-29T08:50:58;13.60;99.90
26537;DHT22;14204;51.262;5.488;2023-04-29T08:53:26;13.60;99.90
26537;DHT22;14204;51.262;5.488;2023-04-29T08:55:53;13.60;99.90
26537;DHT22;14204;51.262;5.488;2023-04-29T08:58:20;13.80;99.90
26537;DHT22;14204;51.262;5.488;2023-04-29T09:00:46;13.90;99.90
26537;DHT22;14204;51.262;5.488;2023-04-29T09:05:52;13.80;99.90
26537;DHT22;14204;51.262;5.488;2023-04-29T09:08:23;13.80;99.90
26537;DHT22;14204;51.262;5.488;2023-04-29T09:10:50;13.80;99.90
26537;DHT22;14204;51.262;5.488;2023-04-29T09:13:27;13.80;99.90
26537;DHT22;14204;51.262;5.488;2023-04-29T09:15:53;13.90;99.90
26537;DHT22;14204;51.262;5.488;2023-04-29T09:18:56;14.00;99.90
26537;DHT22;14204;51.262;5.488;2023-04-29T09:21:26;14.10;99.90
26537;DHT22;14204;51.262;5.488;2023-04-29T09:23:54;14.30;99.90
26537;DHT22;14204;51.262;5.488;2023-04-29T09:26:20;14.20;99.90
26537;DHT22;14204;51.262;5.488;2023-04-29T09:28:47;14.20;99.90
26537;DHT22;14204;51.262;5.488;2023-04-29T09:31:14;14.20;99.90
26537;DHT22;14204;51.262;5.488;2023-04-29T09:33:54;14.20;99.90
26537;DHT22;14204;51.262;5.488;2023-04-29T09:36:50;14.30;99.90
26537;DHT22;14204;51.262;5.488;2023-04-29T09:39:23;14.40;99.90
26537;DHT22;14204;51.262;5.488;2023-04-29T09:44:28;14.40;99.90
26537;DHT22;14204;51.262;5.488;2023-04-29T09:47:02;14.50;99.90
26537;DHT22;14204;51.262;5.488;2023-04-29T09:49:33;14.60;99.90
26537;DHT22;14204;51.262;5.488;2023-04-29T09:52:05;14.60;99.90
26537;DHT22;14204;51.262;5.488;2023-04-29T09:54:33;14.70;99.90
26537;DHT22;14204;51.262;5.488;2023-04-29T09:57:00;14.80;99.90
26537;DHT22;14204;51.262;5.488;2023-04-29T09:59:27;14.70;99.90
26537;DHT22;14204;51.262;5.488;2023-04-29T10:01:56;14.60;99.90
26537;DHT22;14204;51.262;5.488;2023-04-29T10:04:24;14.80;99.90
26537;DHT22;14204;51.262;5.488;2023-04-29T10:06:53;15.00;99.90
26537;DHT22;14204;51.262;5.488;2023-04-29T10:09:21;15.20;99.90
26537;DHT22;14204;51.262;5.488;2023-04-29T10:11:50;15.30;99.90
26537;DHT22;14204;51.262;5.488;2023-04-29T10:14:23;15.50;99.90
26537;DHT22;14204;51.262;5.488;2023-04-29T10:17:02;15.80;99.90
26537;DHT22;14204;51.262;5.488;2023-04-29T10:19:50;15.80;99.90
26537;DHT22;14204;51.262;5.488;2023-04-29T10:22:44;15.80;99.90
26537;DHT22;14204;51.262;5.488;2023-04-29T10:25:11;15.70;99.90
26537;DHT22;14204;51.262;5.488;2023-04-29T10:27:41;15.60;99.90
26537;DHT22;14204;51.262;5.488;2023-04-29T10:30:11;15.40;99.90
26537;DHT22;14204;51.262;5.488;2023-04-29T10:32:42;15.40;99.90
26537;DHT22;14204;51.262;5.488;2023-04-29T10:35:10;15.40;99.90
26537;DHT22;14204;51.262;5.488;2023-04-29T10:37:37;15.50;99.90
26537;DHT22;14204;51.262;5.488;2023-04-29T10:40:21;15.40;99.90
26537;DHT22;14204;51.262;5.488;2023-04-29T10:42:49;15.30;99.90
26537;DHT22;14204;51.262;5.488;2023-04-29T10:45:28;15.20;99.90
26537;DHT22;14204;51.262;5.488;2023-04-29T10:53:15;15.40;99.90
26537;DHT22;14204;51.262;5.488;2023-04-29T10:55:42;15.50;99.90
26537;DHT22;14204;51.262;5.488;2023-04-29T11:00:58;15.90;99.90
26537;DHT22;14204;51.262;5.488;2023-04-29T11:06:12;15.90;99.90
26537;DHT22;14204;51.262;5.488;2023-04-29T11:08:38;15.70;99.90
26537;DHT22;14204;51.262;5.488;2023-04-29T11:11:04;15.60;99.90
26537;DHT22;14204;51.262;5.488;2023-04-29T11:13:38;15.50;99.90
26537;DHT22;14204;51.262;5.488;2023-04-29T11:16:09;15.50;99.90
26537;DHT22;14204;51.262;5.488;2023-04-29T11:19:07;15.60;99.90
26537;DHT22;14204;51.262;5.488;2023-04-29T11:21:37;15.60;99.90
26537;DHT22;14204;51.262;5.488;2023-04-29T11:24:03;15.70;99.90
26537;DHT22;14204;51.262;5.488;2023-04-29T11:26:35;15.70;99.90
26537;DHT22;14204;51.262;5.488;2023-04-29T11:29:01;15.80;99.90
26537;DHT22;14204;51.262;5.488;2023-04-29T11:31:32;15.90;99.90
26537;DHT22;14204;51.262;5.488;2023-04-29T11:33:59;15.90;99.90
26537;DHT22;14204;51.262;5.488;2023-04-29T11:36:25;15.90;99.90
26537;DHT22;14204;51.262;5.488;2023-04-29T11:38:52;16.00;99.90
26537;DHT22;14204;51.262;5.488;2023-04-29T11:41:19;16.00;99.90
26537;DHT22;14204;51.262;5.488;2023-04-29T11:43:46;16.00;99.90
26537;DHT22;14204;51.262;5.488;2023-04-29T11:46:13;16.00;99.90
26537;DHT22;14204;51.262;5.488;2023-04-29T11:48:48;16.00;99.90
26537;DHT22;14204;51.262;5.488;2023-04-29T11:51:15;16.10;99.90
26537;DHT22;14204;51.262;5.488;2023-04-29T11:53:42;16.00;99.90
26537;DHT22;14204;51.262;5.488;2023-04-29T11:56:09;16.00;99.90
26537;DHT22;14204;51.262;5.488;2023-04-29T11:58:35;16.10;99.90
26537;DHT22;14204;51.262;5.488;2023-04-29T12:01:02;16.10;99.90
26537;DHT22;14204;51.262;5.488;2023-04-29T12:03:32;16.10;99.90
26537;DHT22;14204;51.262;5.488;2023-04-29T12:05:59;16.30;99.90
26537;DHT22;14204;51.262;5.488;2023-04-29T12:08:27;16.30;99.90
26537;DHT22;14204;51.262;5.488;2023-04-29T12:10:59;16.30;99.90
26537;DHT22;14204;51.262;5.488;2023-04-29T12:13:28;16.30;99.90
26537;DHT22;14204;51.262;5.488;2023-04-29T12:15:55;16.30;99.90
26537;DHT22;14204;51.262;5.488;2023-04-29T12:18:22;16.30;99.90
26537;DHT22;14204;51.262;5.488;2023-04-29T12:20:49;16.30;99.90
26537;DHT22;14204;51.262;5.488;2023-04-29T12:23:20;16.30;99.90
26537;DHT22;14204;51.262;5.488;2023-04-29T12:25:56;16.30;99.90
26537;DHT22;14204;51.262;5.488;2023-04-29T12:28:23;16.20;99.90
26537;DHT22;14204;51.262;5.488;2023-04-29T12:30:50;16.20;99.90
26537;DHT22;14204;51.262;5.488;2023-04-29T12:33:19;16.30;99.90
26537;DHT22;14204;51.262;5.488;2023-04-29T12:35:47;16.30;99.90
26537;DHT22;14204;51.262;5.488;2023-04-29T12:38:30;16.40;99.90
26537;DHT22;14204;51.262;5.488;2023-04-29T12:40:59;16.40;99.90
26537;DHT22;14204;51.262;5.488;2023-04-29T12:46:03;16.50;99.90
26537;DHT22;14204;51.262;5.488;2023-04-29T12:48:33;16.60;99.90
26537;DHT22;14204;51.262;5.488;2023-04-29T12:51:02;16.80;99.90
26537;DHT22;14204;51.262;5.488;2023-04-29T12:53:29;16.80;99.90
26537;DHT22;14204;51.262;5.488;2023-04-29T12:55:56;16.90;99.90
26537;DHT22;14204;51.262;5.488;2023-04-29T12:58:22;16.90;99.90
26537;DHT22;14204;51.262;5.488;2023-04-29T13:00:48;16.90;99.90
26537;DHT22;14204;51.262;5.488;2023-04-29T13:03:14;16.90;99.90
26537;DHT22;14204;51.262;5.488;2023-04-29T13:05:40;16.90;99.90
26537;DHT22;14204;51.262;5.488;2023-04-29T13:08:06;17.00;99.90
26537;DHT22;14204;51.262;5.488;2023-04-29T13:10:33;17.10;99.90
26537;DHT22;14204;51.262;5.488;2023-04-29T13:12:59;17.10;99.90
26537;DHT22;14204;51.262;5.488;2023-04-29T13:15:25;17.10;99.90
26537;DHT22;14204;51.262;5.488;2023-04-29T13:17:52;17.10;99.90
26537;DHT22;14204;51.262;5.488;2023-04-29T13:20:18;17.20;99.90
26537;DHT22;14204;51.262;5.488;2023-04-29T13:22:44;17.20;99.90
26537;DHT22;14204;51.262;5.488;2023-04-29T13:25:10;17.20;99.90
26537;DHT22;14204;51.262;5.488;2023-04-29T13:27:40;17.20;99.90
26537;DHT22;14204;51.262;5.488;2023-04-29T13:30:06;17.30;99.90
26537;DHT22;14204;51.262;5.488;2023-04-29T13:32:33;17.30;99.90
26537;DHT22;14204;51.262;5.488;2023-04-29T13:34:59;17.30;99.90
26537;DHT22;14204;51.262;5.488;2023-04-29T13:37:25;17.40;99.90
26537;DHT22;14204;51.262;5.488;2023-04-29T13:39:51;17.50;99.90
26537;DHT22;14204;51.262;5.488;2023-04-29T13:42:16;17.70;99.90
26537;DHT22;14204;51.262;5.488;2023-04-29T13:44:42;17.70;99.90
26537;DHT22;14204;51.262;5.488;2023-04-29T13:47:18;17.70;99.90
26537;DHT22;14204;51.262;5.488;2023-04-29T13:49:43;17.70;99.90
26537;DHT22;14204;51.262;5.488;2023-04-29T13:52:10;17.80;99.90
26537;DHT22;14204;51.262;5.488;2023-04-29T13:54:36;17.90;99.90
26537;DHT22;14204;51.262;5.488;2023-04-29T13:57:02;18.00;99.90
26537;DHT22;14204;51.262;5.488;2023-04-29T13:59:31;18.00;99.90
26537;DHT22;14204;51.262;5.488;2023-04-29T14:01:58;17.90;99.90
26537;DHT22;14204;51.262;5.488;2023-04-29T14:04:25;17.70;99.90
26537;DHT22;14204;51.262;5.488;2023-04-29T14:06:51;17.60;99.90
26537;DHT22;14204;51.262;5.488;2023-04-29T14:09:17;17.70;99.90
26537;DHT22;14204;51.262;5.488;2023-04-29T14:11:48;17.60;99.90
26537;DHT22;14204;51.262;5.488;2023-04-29T14:14:15;17.70;99.90
26537;DHT22;14204;51.262;5.488;2023-04-29T14:16:41;17.70;99.90
26537;DHT22;14204;51.262;5.488;2023-04-29T14:19:07;17.80;99.90
26537;DHT22;14204;51.262;5.488;2023-04-29T14:21:33;17.80;99.90
26537;DHT22;14204;51.262;5.488;2023-04-29T14:23:59;17.80;99.90
26537;DHT22;14204;51.262;5.488;2023-04-29T14:26:27;17.70;99.90
26537;DHT22;14204;51.262;5.488;2023-04-29T14:28:53;17.80;99.90
26537;DHT22;14204;51.262;5.488;2023-04-29T14:31:23;17.80;99.90
26537;DHT22;14204;51.262;5.488;2023-04-29T14:33:48;17.80;99.90
26537;DHT22;14204;51.262;5.488;2023-04-29T14:36:16;17.80;99.90
26537;DHT22;14204;51.262;5.488;2023-04-29T14:38:41;17.80;99.90
26537;DHT22;14204;51.262;5.488;2023-04-29T14:41:07;17.70;99.90
26537;DHT22;14204;51.262;5.488;2023-04-29T14:43:34;17.60;99.90
26537;DHT22;14204;51.262;5.488;2023-04-29T14:45:59;17.60;99.90
26537;DHT22;14204;51.262;5.488;2023-04-29T14:48:25;17.70;99.90
26537;DHT22;14204;51.262;5.488;2023-04-29T14:50:51;17.70;99.90
26537;DHT22;14204;51.262;5.488;2023-04-29T14:53:17;17.70;99.90
26537;DHT22;14204;51.262;5.488;2023-04-29T14:55:43;17.70;99.90
26537;DHT22;14204;51.262;5.488;2023-04-29T14:58:08;17.70;99.90
26537;DHT22;14204;51.262;5.488;2023-04-29T15:00:34;17.80;99.90
26537;DHT22;14204;51.262;5.488;2023-04-29T15:03:01;17.80;99.90
26537;DHT22;14204;51.262;5.488;2023-04-29T15:05:26;17.80;99.90
26537;DHT22;14204;51.262;5.488;2023-04-29T15:07:53;17.80;99.90
26537;DHT22;14204;51.262;5.488;2023-04-29T15:10:18;17.80;99.90
26537;DHT22;14204;51.262;5.488;2023-04-29T15:12:44;17.80;99.90
26537;DHT22;14204;51.262;5.488;2023-04-29T15:15:10;17.90;99.90
26537;DHT22;14204;51.262;5.488;2023-04-29T15:17:36;17.80;99.90
26537;DHT22;14204;51.262;5.488;2023-04-29T15:20:01;17.80;99.90
26537;DHT22;14204;51.262;5.488;2023-04-29T15:22:27;17.80;99.90
26537;DHT22;14204;51.262;5.488;2023-04-29T15:24:53;17.80;99.90
26537;DHT22;14204;51.262;5.488;2023-04-29T15:27:19;17.80;99.90
26537;DHT22;14204;51.262;5.488;2023-04-29T15:29:45;17.80;99.90
26537;DHT22;14204;51.262;5.488;2023-04-29T15:32:11;17.80;99.90
26537;DHT22;14204;51.262;5.488;2023-04-29T15:34:37;17.80;99.90
26537;DHT22;14204;51.262;5.488;2023-04-29T15:37:03;17.80;99.90
26537;DHT22;14204;51.262;5.488;2023-04-29T15:39:28;17.90;99.90
26537;DHT22;14204;51.262;5.488;2023-04-29T15:41:54;18.00;99.90
26537;DHT22;14204;51.262;5.488;2023-04-29T15:44:20;17.80;99.90
26537;DHT22;14204;51.262;5.488;2023-04-29T15:46:45;17.60;99.90
26537;DHT22;14204;51.262;5.488;2023-04-29T15:49:11;17.60;99.90
26537;DHT22;14204;51.262;5.488;2023-04-29T15:51:37;17.60;99.90
26537;DHT22;14204;51.262;5.488;2023-04-29T15:54:02;17.60;99.90
26537;DHT22;14204;51.262;5.488;2023-04-29T15:56:29;17.70;99.90
26537;DHT22;14204;51.262;5.488;2023-04-29T15:58:55;17.80;99.90
26537;DHT22;14204;51.262;5.488;2023-04-29T16:01:21;17.70;99.90